Time;durP1;ratioP1;P1;durP2;ratioP2;P2;SDS_P1;SDS_P2;PMS_P1;PMS_P2;Temp;Humidity;BMP_temperature;BMP_pressure;BME280_temperature;BME280_humidity;BME280_pressure;Samples;Min_cycle;Max_cycle;Signal;HPM_P1;HPM_P2
2022/04/04 00:00:51;;;;;;;6.97;3.20;;;3.30;99.90;;;;;;4960643;28;20094;-49
2022/04/04 00:03:16;;;;;;;9.43;3.50;;;3.30;99.90;;;;;;4960978;29;20120;-52
2022/04/04 00:05:42;;;;;;;7.63;3.45;;;3.30;99.90;;;;;;4961067;29;20074;-51
2022/04/04 00:08:08;;;;;;;7.80;3.80;;;3.30;99.90;;;;;;4960468;28;20050;-54
2022/04/04 00:10:34;;;;;;;17.98;5.03;;;3.30;99.90;;;;;;4961413;28;20044;-52
2022/04/04 00:13:00;;;;;;;8.27;3.30;;;3.30;99.90;;;;;;4959929;28;20571;-50
2022/04/04 00:15:27;;;;;;;8.98;3.60;;;3.30;99.90;;;;;;4961284;28;20106;-52
2022/04/04 00:17:55;;;;;;;9.85;3.75;;;3.30;99.90;;;;;;4959963;28;20685;-50
2022/04/04 00:20:22;;;;;;;8.75;3.70;;;3.20;99.90;;;;;;4960830;28;20094;-50
2022/04/04 00:22:47;;;;;;;8.20;3.47;;;3.30;99.90;;;;;;4960719;28;20114;-52
2022/04/04 00:25:13;;;;;;;7.10;3.22;;;3.30;99.90;;;;;;4958702;29;20047;-52
2022/04/04 00:27:39;;;;;;;9.75;3.90;;;3.30;99.90;;;;;;4960838;29;20080;-50
2022/04/04 00:30:05;;;;;;;8.07;3.53;;;3.30;99.90;;;;;;4959763;29;20070;-51
2022/04/04 00:32:31;;;;;;;8.50;3.60;;;3.20;99.90;;;;;;4961012;28;20070;-53
2022/04/04 00:34:56;;;;;;;9.10;3.80;;;3.40;99.90;;;;;;4959766;29;20054;-52
2022/04/04 00:37:22;;;;;;;8.20;3.45;;;3.40;99.90;;;;;;4960690;28;20070;-49
2022/04/04 00:39:48;;;;;;;7.38;3.92;;;3.40;99.90;;;;;;4960256;29;20102;-52
2022/04/04 00:42:17;;;;;;;9.63;3.45;;;3.40;99.90;;;;;;4959898;28;20051;-51
2022/04/04 00:44:45;;;;;;;9.00;3.97;;;3.40;99.90;;;;;;4960763;28;20063;-50
2022/04/04 00:47:11;;;;;;;8.75;3.60;;;3.40;99.90;;;;;;4958272;29;20171;-49
2022/04/04 00:49:37;;;;;;;8.93;3.92;;;3.40;99.90;;;;;;4961007;28;20126;-50
2022/04/04 00:52:03;;;;;;;11.20;4.18;;;3.40;99.90;;;;;;4963583;28;20055;-51
2022/04/04 00:54:29;;;;;;;7.95;3.80;;;3.40;99.90;;;;;;4967202;28;20039;-50
2022/04/04 00:56:56;;;;;;;10.90;4.18;;;3.50;99.90;;;;;;4966495;28;20082;-52
2022/04/04 00:59:23;;;;;;;9.77;4.78;;;3.40;99.90;;;;;;4966350;28;20043;-50
2022/04/04 01:01:49;;;;;;;8.85;3.85;;;3.40;99.90;;;;;;4966868;29;20086;-48
2022/04/04 01:04:16;;;;;;;9.63;4.80;;;3.50;99.90;;;;;;4965840;28;20098;-51
2022/04/04 01:06:43;;;;;;;10.50;4.40;;;3.50;99.90;;;;;;4965979;28;20050;-50
2022/04/04 01:09:16;;;;;;;10.32;4.72;;;3.50;99.90;;;;;;4966117;28;20099;-51
2022/04/04 01:12:05;;;;;;;7.90;4.32;;;3.50;99.90;;;;;;4965184;29;20487;-51
2022/04/04 01:14:31;;;;;;;13.23;5.03;;;3.50;99.90;;;;;;4965517;29;20491;-52
2022/04/04 01:16:57;;;;;;;10.63;4.90;;;3.40;99.90;;;;;;4965384;29;20055;-50
2022/04/04 01:19:22;;;;;;;9.35;4.72;;;3.50;99.90;;;;;;4967205;28;20055;-50
2022/04/04 01:21:48;;;;;;;9.13;4.30;;;3.50;99.90;;;;;;4965369;29;20106;-48
2022/04/04 01:24:21;;;;;;;11.57;5.15;;;3.50;99.90;;;;;;4967077;28;20040;-48
2022/04/04 01:26:52;;;;;;;12.57;5.80;;;3.40;99.90;;;;;;4966238;28;20417;-52
2022/04/04 01:29:20;;;;;;;10.90;5.07;;;3.40;99.90;;;;;;4966230;28;20053;-50
2022/04/04 01:31:47;;;;;;;10.80;5.32;;;3.50;99.90;;;;;;4966759;28;20035;-48
2022/04/04 01:34:13;;;;;;;9.45;5.25;;;3.40;99.90;;;;;;4965612;28;20078;-49
2022/04/04 01:36:39;;;;;;;10.48;6.20;;;3.40;99.90;;;;;;4966980;28;20043;-50
2022/04/04 01:39:05;;;;;;;12.57;6.68;;;3.50;99.90;;;;;;4965823;28;20039;-50
2022/04/04 01:41:30;;;;;;;12.90;6.60;;;3.40;99.90;;;;;;4966502;28;20071;-52
2022/04/04 01:43:56;;;;;;;12.90;6.55;;;3.50;99.90;;;;;;4965860;28;20123;-51
2022/04/04 01:46:24;;;;;;;12.20;7.07;;;3.50;99.90;;;;;;4965875;28;20079;-51
2022/04/04 01:48:55;;;;;;;14.43;7.90;;;3.50;99.90;;;;;;4966527;28;20510;-50
2022/04/04 01:51:22;;;;;;;14.10;7.35;;;3.50;99.90;;;;;;4965779;28;20357;-52
2022/04/04 01:53:47;;;;;;;14.63;8.18;;;3.50;99.90;;;;;;4966943;28;20053;-48
2022/04/04 01:56:13;;;;;;;15.48;7.90;;;3.60;99.90;;;;;;4965710;28;20118;-50
2022/04/04 01:58:40;;;;;;;16.92;9.52;;;3.60;99.90;;;;;;4966627;28;20049;-51
2022/04/04 02:01:24;;;;;;;16.00;9.80;;;3.60;99.90;;;;;;4965930;28;20035;-51
2022/04/04 02:03:53;;;;;;;16.75;10.30;;;3.70;99.90;;;;;;4963061;28;20043;-53
2022/04/04 02:06:20;;;;;;;17.88;10.68;;;3.70;99.90;;;;;;4963804;28;20050;-53
2022/04/04 02:08:46;;;;;;;19.90;10.43;;;3.70;99.90;;;;;;4962482;28;20042;-52
2022/04/04 02:11:13;;;;;;;17.85;10.43;;;3.70;99.90;;;;;;4963524;28;20050;-52
2022/04/04 02:13:40;;;;;;;18.55;10.60;;;3.80;99.90;;;;;;4961114;29;20057;-49
2022/04/04 02:16:06;;;;;;;21.30;12.32;;;3.70;99.90;;;;;;4961397;29;20086;-51
2022/04/04 02:18:33;;;;;;;19.77;11.68;;;3.70;99.90;;;;;;4962959;29;20431;-52
2022/04/04 02:20:59;;;;;;;21.70;13.05;;;3.80;99.90;;;;;;4961942;28;20051;-52
2022/04/04 02:23:25;;;;;;;23.15;12.75;;;3.80;99.90;;;;;;4963204;28;20091;-49
2022/04/04 02:25:53;;;;;;;24.50;13.20;;;3.70;99.90;;;;;;4961880;28;20039;-50
2022/04/04 02:28:19;;;;;;;23.17;14.35;;;3.80;99.90;;;;;;4963217;28;20130;-51
2022/04/04 02:30:46;;;;;;;26.40;14.68;;;3.80;99.90;;;;;;4962195;28;20043;-49
2022/04/04 02:33:12;;;;;;;21.83;14.18;;;3.90;99.90;;;;;;4962665;28;20058;-52
2022/04/04 02:35:39;;;;;;;22.35;14.77;;;3.90;99.90;;;;;;4962587;29;20043;-48
2022/04/04 02:38:05;;;;;;;23.27;14.57;;;3.90;99.90;;;;;;4961932;29;20043;-48
2022/04/04 02:40:32;;;;;;;23.00;15.35;;;3.90;99.90;;;;;;4963107;28;20043;-51
2022/04/04 02:42:57;;;;;;;24.30;14.60;;;4.00;99.90;;;;;;4961704;28;20043;-49
2022/04/04 02:45:23;;;;;;;22.48;14.65;;;4.00;99.90;;;;;;4962763;29;20166;-51
2022/04/04 02:47:49;;;;;;;24.80;16.17;;;4.00;99.90;;;;;;4961392;29;20052;-52
2022/04/04 02:50:16;;;;;;;24.02;15.55;;;3.90;99.90;;;;;;4962444;29;20059;-51
2022/04/04 02:52:43;;;;;;;22.65;15.75;;;4.00;99.90;;;;;;4962232;28;20055;-49
2022/04/04 02:57:55;;;;;;;24.33;15.73;;;4.10;99.90;;;;;;4962848;29;20058;-49
2022/04/04 03:00:23;;;;;;;22.23;14.10;;;4.10;99.90;;;;;;4959937;29;20045;-51
2022/04/04 03:02:50;;;;;;;21.83;15.43;;;4.20;99.90;;;;;;4962592;28;20050;-52
2022/04/04 03:05:16;;;;;;;22.25;15.40;;;4.20;99.90;;;;;;4961853;28;20070;-50
2022/04/04 03:07:42;;;;;;;23.17;15.05;;;4.10;99.90;;;;;;4960466;29;20051;-48
2022/04/04 03:10:09;;;;;;;25.77;15.00;;;4.20;99.90;;;;;;4962115;28;20050;-50
2022/04/04 03:12:43;;;;;;;26.83;15.20;;;4.30;99.90;;;;;;4960908;28;20043;-50
2022/04/04 03:15:15;;;;;;;22.88;15.23;;;4.20;99.90;;;;;;4962091;28;20067;-51
2022/04/04 03:17:45;;;;;;;24.85;15.07;;;4.30;99.90;;;;;;4961007;28;20051;-52
2022/04/04 03:20:12;;;;;;;30.02;15.38;;;4.40;99.90;;;;;;4962115;28;20062;-50
2022/04/04 03:22:46;;;;;;;26.33;15.30;;;4.40;99.90;;;;;;4961638;28;20077;-49
2022/04/04 03:25:13;;;;;;;22.73;14.88;;;4.30;99.90;;;;;;4961083;28;20070;-53
2022/04/04 03:27:41;;;;;;;25.92;16.38;;;4.50;99.90;;;;;;4962136;28;20054;-51
2022/04/04 03:30:13;;;;;;;24.85;15.75;;;4.50;99.90;;;;;;4960992;28;20055;-50
2022/04/04 03:32:39;;;;;;;27.20;16.40;;;4.40;99.90;;;;;;4960697;29;20126;-52
2022/04/04 03:35:06;;;;;;;27.40;16.65;;;4.40;99.90;;;;;;4960977;28;20051;-52
2022/04/04 03:37:36;;;;;;;26.85;16.80;;;4.50;99.90;;;;;;4961477;28;20042;-54
2022/04/04 03:40:04;;;;;;;23.80;16.85;;;4.60;99.90;;;;;;4961616;28;20047;-52
2022/04/04 03:42:30;;;;;;;27.05;16.33;;;4.60;99.90;;;;;;4960173;28;20051;-50
2022/04/04 03:44:56;;;;;;;24.23;14.90;;;4.70;99.90;;;;;;4961877;28;20055;-51
2022/04/04 03:47:22;;;;;;;23.27;15.73;;;4.60;99.90;;;;;;4960294;28;20065;-52
2022/04/04 03:49:48;;;;;;;25.77;15.20;;;4.70;99.90;;;;;;4961635;28;20055;-50
2022/04/04 03:52:14;;;;;;;24.75;16.58;;;4.80;99.90;;;;;;4960604;29;20512;-52
2022/04/04 03:54:41;;;;;;;26.58;15.27;;;4.90;99.90;;;;;;4961151;28;20058;-52
2022/04/04 03:57:07;;;;;;;27.38;16.08;;;4.90;99.90;;;;;;4961285;28;20051;-52
2022/04/04 03:59:32;;;;;;;31.70;15.02;;;4.90;99.90;;;;;;4959006;29;20098;-52
2022/04/04 04:01:59;;;;;;;22.40;14.07;;;5.20;99.90;;;;;;4961568;29;20124;-51
2022/04/04 04:04:24;;;;;;;26.25;16.85;;;4.90;99.90;;;;;;4959956;28;20116;-54
2022/04/04 04:06:51;;;;;;;25.00;15.88;;;5.00;99.90;;;;;;4961599;28;20047;-52
2022/04/04 04:09:18;;;;;;;24.48;14.60;;;4.90;99.90;;;;;;4960459;28;20106;-52
2022/04/04 04:11:44;;;;;;;27.02;16.83;;;5.00;99.90;;;;;;4960868;28;20047;-52
2022/04/04 04:14:10;;;;;;;22.88;15.35;;;4.90;99.90;;;;;;4961031;28;20077;-52
2022/04/04 04:16:35;;;;;;;27.27;15.13;;;4.90;99.90;;;;;;4959884;29;20047;-54
2022/04/04 04:19:01;;;;;;;28.38;15.80;;;5.00;99.90;;;;;;4961178;29;20146;-54
2022/04/04 04:21:27;;;;;;;25.00;15.05;;;4.90;99.90;;;;;;4959999;28;20055;-53
2022/04/04 04:23:53;;;;;;;24.60;15.25;;;4.90;99.90;;;;;;4961079;29;20094;-53
2022/04/04 04:26:20;;;;;;;26.88;15.15;;;4.90;99.90;;;;;;4959170;28;20055;-53
2022/04/04 04:28:47;;;;;;;25.98;14.88;;;4.90;99.90;;;;;;4959499;29;20043;-52
2022/04/04 04:31:16;;;;;;;29.50;16.48;;;4.90;99.90;;;;;;4960549;28;20098;-53
2022/04/04 04:33:42;;;;;;;28.77;16.05;;;4.90;99.90;;;;;;4959987;28;20051;-55
2022/04/04 04:36:08;;;;;;;27.52;15.93;;;4.90;99.90;;;;;;4960823;28;20047;-53
2022/04/04 04:38:34;;;;;;;24.65;17.08;;;4.90;99.90;;;;;;4959885;29;20103;-53
2022/04/04 04:41:00;;;;;;;28.30;15.13;;;4.80;99.90;;;;;;4961067;29;20055;-53
2022/04/04 04:43:26;;;;;;;26.48;16.92;;;4.80;99.90;;;;;;4959448;28;20039;-52
2022/04/04 04:45:52;;;;;;;31.13;15.45;;;4.80;99.90;;;;;;4960486;28;20085;-52
2022/04/04 04:48:18;;;;;;;28.25;16.55;;;4.70;99.90;;;;;;4960439;29;20047;-53
2022/04/04 04:50:45;;;;;;;22.13;14.85;;;4.70;99.90;;;;;;4959840;28;20083;-55
2022/04/04 04:53:10;;;;;;;25.55;15.27;;;4.60;99.90;;;;;;4960900;28;20047;-54
2022/04/04 04:55:36;;;;;;;24.48;14.38;;;4.70;99.90;;;;;;4959793;28;20051;-55
2022/04/04 04:58:02;;;;;;;27.00;13.65;;;4.60;99.90;;;;;;4960893;29;20844;-55
2022/04/04 05:00:29;;;;;;;27.75;14.73;;;4.60;99.90;;;;;;4959472;28;20051;-55
2022/04/04 05:05:41;;;;;;;28.77;15.73;;;4.60;99.90;;;;;;4960243;29;20122;-55
2022/04/04 05:08:07;;;;;;;26.77;14.23;;;4.50;99.90;;;;;;4959580;28;20084;-56
2022/04/04 05:10:33;;;;;;;27.85;15.20;;;4.60;99.90;;;;;;4960697;28;20043;-55
2022/04/04 05:12:59;;;;;;;26.08;15.05;;;4.50;99.90;;;;;;4959223;28;20040;-55
2022/04/04 05:15:25;;;;;;;23.77;15.43;;;4.60;99.90;;;;;;4959370;29;20062;-54
2022/04/04 05:17:52;;;;;;;30.17;15.52;;;4.50;99.90;;;;;;4959183;29;20083;-56
2022/04/04 05:20:19;;;;;;;31.85;14.65;;;4.40;99.90;;;;;;4960264;28;20035;-56
2022/04/04 05:22:45;;;;;;;25.17;14.68;;;4.50;99.90;;;;;;4960259;28;20070;-55
2022/04/04 05:25:11;;;;;;;27.15;15.10;;;4.60;99.90;;;;;;4957326;28;20043;-56
2022/04/04 05:27:39;;;;;;;22.30;14.38;;;4.60;99.90;;;;;;4957245;29;20047;-55
2022/04/04 05:30:05;;;;;;;27.70;15.98;;;4.60;99.90;;;;;;4956210;28;20183;-56
2022/04/04 05:32:30;;;;;;;19.63;13.10;;;4.60;99.90;;;;;;4957145;28;20039;-54
2022/04/04 05:34:56;;;;;;;18.98;13.10;;;4.40;99.90;;;;;;4956536;29;20047;-54
2022/04/04 05:37:22;;;;;;;21.10;12.98;;;4.40;99.90;;;;;;4957370;28;20043;-54
2022/04/04 05:39:47;;;;;;;22.60;12.65;;;4.50;99.90;;;;;;4960764;29;20067;-54
2022/04/04 05:42:13;;;;;;;20.30;12.20;;;4.40;99.90;;;;;;4958304;29;20514;-55
2022/04/04 05:44:39;;;;;;;19.35;10.35;;;4.50;99.90;;;;;;4959272;29;20048;-54
2022/04/04 05:47:05;;;;;;;17.10;11.23;;;4.40;99.90;;;;;;4959389;29;20094;-54
2022/04/04 05:49:30;;;;;;;15.90;9.88;;;4.40;99.90;;;;;;4960488;29;20078;-55
2022/04/04 05:51:56;;;;;;;13.10;7.63;;;4.30;99.90;;;;;;4959443;29;20047;-53
2022/04/04 05:54:22;;;;;;;16.88;8.05;;;4.20;99.90;;;;;;4959085;29;20075;-55
2022/04/04 05:56:47;;;;;;;12.80;5.82;;;4.20;99.90;;;;;;4960240;29;20118;-53
2022/04/04 05:59:13;;;;;;;11.02;5.57;;;4.20;99.90;;;;;;4959671;28;20051;-54
2022/04/04 06:01:40;;;;;;;9.88;5.15;;;4.10;99.90;;;;;;4960035;29;20043;-54
2022/04/04 06:04:06;;;;;;;9.95;5.18;;;4.10;99.90;;;;;;4959041;28;20126;-54
2022/04/04 06:06:31;;;;;;;12.70;5.15;;;4.00;99.90;;;;;;4960695;29;20079;-56
2022/04/04 06:08:57;;;;;;;12.05;5.70;;;4.10;99.90;;;;;;4959119;28;20078;-53
2022/04/04 06:11:24;;;;;;;15.60;6.50;;;4.10;99.90;;;;;;4960278;29;20098;-54
2022/04/04 06:13:49;;;;;;;10.85;5.43;;;4.00;99.90;;;;;;4959125;28;20053;-51
2022/04/04 06:16:15;;;;;;;13.80;5.45;;;4.00;99.90;;;;;;4959365;28;20074;-54
2022/04/04 06:18:42;;;;;;;12.63;5.00;;;4.00;99.90;;;;;;4959957;29;20054;-54
2022/04/04 06:21:09;;;;;;;10.63;5.00;;;4.10;99.90;;;;;;4958916;28;20106;-54
2022/04/04 06:23:36;;;;;;;11.18;4.70;;;4.10;99.90;;;;;;4960319;28;20043;-53
2022/04/04 06:26:04;;;;;;;11.15;4.18;;;4.00;99.90;;;;;;4958349;29;20058;-53
2022/04/04 06:28:31;;;;;;;8.32;3.72;;;4.20;99.90;;;;;;4959846;28;20070;-53
2022/04/04 06:30:58;;;;;;;13.15;4.25;;;4.00;99.90;;;;;;4959381;28;20055;-53
2022/04/04 06:33:25;;;;;;;14.80;5.25;;;4.10;99.90;;;;;;4959044;28;20075;-54
2022/04/04 06:35:51;;;;;;;9.95;4.72;;;4.20;99.90;;;;;;4959855;28;20059;-53
2022/04/04 06:38:18;;;;;;;11.85;5.20;;;4.20;99.90;;;;;;4955455;29;20163;-53
2022/04/04 06:40:49;;;;;;;9.38;5.72;;;4.20;99.90;;;;;;4949609;29;20047;-53
2022/04/04 06:43:17;;;;;;;13.10;5.82;;;4.10;99.90;;;;;;4941967;29;20066;-52
2022/04/04 06:45:44;;;;;;;11.80;6.28;;;4.30;99.90;;;;;;4940362;29;20052;-53
2022/04/04 06:48:11;;;;;;;11.40;5.82;;;4.20;99.90;;;;;;4938468;29;20055;-53
2022/04/04 06:50:37;;;;;;;16.42;6.95;;;4.40;99.90;;;;;;4938255;29;20050;-53
2022/04/04 06:53:03;;;;;;;13.13;6.45;;;4.30;99.90;;;;;;4940185;29;20656;-53
2022/04/04 06:55:31;;;;;;;13.57;6.32;;;4.30;99.90;;;;;;4939062;29;20137;-53
2022/04/04 06:57:57;;;;;;;18.08;8.45;;;4.30;99.90;;;;;;4940570;29;20063;-51
2022/04/04 07:00:23;;;;;;;12.48;6.88;;;4.40;99.90;;;;;;4939215;29;20126;-53
2022/04/04 07:02:49;;;;;;;13.38;7.55;;;4.50;99.90;;;;;;4939843;29;20075;-53
2022/04/04 07:05:16;;;;;;;13.88;7.80;;;4.40;99.90;;;;;;4947921;29;20225;-49
2022/04/04 07:07:42;;;;;;;21.42;9.20;;;4.40;99.90;;;;;;4938004;29;20055;-50
2022/04/04 07:10:10;;;;;;;15.90;8.35;;;4.40;99.90;;;;;;4938606;29;20146;-52
2022/04/04 07:12:42;;;;;;;13.23;8.55;;;4.50;99.90;;;;;;4938934;29;20133;-53
2022/04/04 07:15:10;;;;;;;16.85;8.55;;;4.50;99.90;;;;;;4940103;29;20043;-57
2022/04/04 07:17:37;;;;;;;16.88;9.07;;;4.60;99.90;;;;;;4938570;29;20036;-53
2022/04/04 07:20:03;;;;;;;15.88;9.07;;;4.70;99.90;;;;;;4938310;29;20063;-54
2022/04/04 07:22:38;;;;;;;16.25;10.23;;;4.60;99.90;;;;;;4937733;29;20098;-52
2022/04/04 07:25:04;;;;;;;21.23;10.25;;;4.70;99.90;;;;;;4955269;29;20054;-53
2022/04/04 07:27:31;;;;;;;19.55;10.15;;;4.60;99.90;;;;;;4958911;28;20039;-53
2022/04/04 07:29:57;;;;;;;16.95;10.07;;;5.20;99.90;;;;;;4941844;29;20543;-53
2022/04/04 07:32:22;;;;;;;22.52;11.45;;;4.70;99.90;;;;;;4941019;29;20083;-55
2022/04/04 07:34:48;;;;;;;22.50;11.05;;;4.90;99.90;;;;;;4939137;29;20047;-54
2022/04/04 07:37:14;;;;;;;26.15;11.45;;;4.90;99.90;;;;;;4958289;29;20066;-55
2022/04/04 07:39:40;;;;;;;18.20;11.82;;;4.80;99.90;;;;;;4958021;29;20046;-55
2022/04/04 07:42:06;;;;;;;21.40;11.32;;;4.90;99.90;;;;;;4957548;29;20161;-55
2022/04/04 07:44:32;;;;;;;20.48;11.38;;;4.90;99.90;;;;;;4956777;28;20051;-54
2022/04/04 07:46:57;;;;;;;25.05;11.63;;;4.90;99.90;;;;;;4957131;29;20081;-53
2022/04/04 07:49:23;;;;;;;24.30;11.35;;;4.90;99.90;;;;;;4959297;29;20039;-53
2022/04/04 07:51:49;;;;;;;24.35;12.10;;;5.10;99.90;;;;;;4959066;29;20066;-55
2022/04/04 07:54:14;;;;;;;20.85;12.02;;;5.00;99.90;;;;;;4959590;29;20055;-54
2022/04/04 07:56:41;;;;;;;19.17;11.32;;;5.10;99.90;;;;;;4960227;29;20051;-54
2022/04/04 07:59:06;;;;;;;20.65;11.45;;;5.10;99.90;;;;;;4960699;28;20067;-55
2022/04/04 08:01:32;;;;;;;18.20;9.85;;;5.20;99.90;;;;;;4961303;28;20074;-54
2022/04/04 08:03:58;;;;;;;15.68;9.63;;;5.30;99.90;;;;;;4959838;28;20047;-55
2022/04/04 08:06:23;;;;;;;18.90;10.40;;;5.20;99.90;;;;;;4961511;28;20051;-53
2022/04/04 08:08:49;;;;;;;16.70;11.13;;;5.20;99.90;;;;;;4960033;28;20058;-54
2022/04/04 08:11:15;;;;;;;17.48;10.43;;;5.20;99.90;;;;;;4961296;28;20054;-53
2022/04/04 08:13:44;;;;;;;16.92;9.35;;;5.30;99.90;;;;;;4960263;29;20031;-50
2022/04/04 08:16:10;;;;;;;18.92;11.50;;;5.30;99.90;;;;;;4958968;29;20043;-54
2022/04/04 08:18:35;;;;;;;16.27;10.25;;;5.20;99.90;;;;;;4960921;28;20050;-55
2022/04/04 08:21:01;;;;;;;18.45;10.65;;;5.30;99.90;;;;;;4959778;29;20423;-54
2022/04/04 08:23:29;;;;;;;17.20;9.45;;;5.20;99.90;;;;;;4961141;29;20039;-54
2022/04/04 08:25:59;;;;;;;14.63;9.45;;;5.40;99.90;;;;;;4958410;29;20050;-56
2022/04/04 08:28:25;;;;;;;16.00;8.18;;;5.40;99.90;;;;;;4961183;28;20109;-56
2022/04/04 08:30:51;;;;;;;16.45;8.32;;;5.40;99.90;;;;;;4960317;28;20055;-56
2022/04/04 08:33:18;;;;;;;13.52;8.10;;;5.50;99.90;;;;;;4960273;28;20043;-56
2022/04/04 08:35:45;;;;;;;13.10;8.00;;;5.50;99.90;;;;;;4960883;29;20043;-56
2022/04/04 08:38:14;;;;;;;12.60;7.32;;;5.40;99.90;;;;;;4959723;28;20047;-56
2022/04/04 08:40:44;;;;;;;13.60;6.93;;;5.50;99.90;;;;;;4961043;29;20039;-56
2022/04/04 08:43:11;;;;;;;14.38;7.05;;;5.60;99.90;;;;;;4959722;28;20058;-57
2022/04/04 08:45:42;;;;;;;12.38;6.75;;;5.40;99.90;;;;;;4960425;28;20443;-56
2022/04/04 08:48:09;;;;;;;11.82;6.30;;;5.50;99.90;;;;;;4960413;28;20404;-56
2022/04/04 08:50:42;;;;;;;10.70;5.70;;;5.60;99.90;;;;;;4960184;28;20070;-58
2022/04/04 08:53:08;;;;;;;12.68;6.13;;;5.70;99.90;;;;;;4960651;28;20051;-54
2022/04/04 08:55:35;;;;;;;9.88;5.95;;;5.70;99.90;;;;;;4959529;29;20126;-55
2022/04/04 08:58:01;;;;;;;11.30;6.45;;;5.70;99.90;;;;;;4960900;29;20082;-54
2022/04/04 09:00:27;;;;;;;11.60;5.97;;;5.60;99.90;;;;;;4959673;28;20054;-57
2022/04/04 09:03:04;;;;;;;10.80;6.15;;;5.70;99.90;;;;;;4960293;28;20047;-56
2022/04/04 09:05:34;;;;;;;11.40;5.80;;;5.70;99.90;;;;;;4960114;28;20058;-56
2022/04/04 09:08:05;;;;;;;11.88;5.85;;;5.80;99.90;;;;;;4959483;28;20538;-56
2022/04/04 09:10:33;;;;;;;11.95;6.10;;;5.70;99.90;;;;;;4960792;28;20043;-56
2022/04/04 09:13:10;;;;;;;11.82;6.47;;;5.80;99.90;;;;;;4961164;28;20547;-56
2022/04/04 09:15:51;;;;;;;12.98;5.13;;;5.90;99.90;;;;;;4964423;28;20115;-55
2022/04/04 09:18:18;;;;;;;9.85;4.97;;;5.90;99.90;;;;;;4964244;28;20449;-55
2022/04/04 09:20:52;;;;;;;11.13;5.60;;;5.70;99.90;;;;;;4963546;28;20696;-56
2022/04/04 09:23:18;;;;;;;10.52;5.30;;;5.90;99.90;;;;;;4964466;29;20408;-56
2022/04/04 09:25:45;;;;;;;11.63;4.88;;;5.80;99.90;;;;;;4963174;29;20040;-57
2022/04/04 09:28:15;;;;;;;12.35;4.88;;;6.00;99.90;;;;;;4964380;28;20053;-56
2022/04/04 09:30:42;;;;;;;12.38;5.38;;;5.80;99.90;;;;;;4963322;28;20043;-54
2022/04/04 09:33:13;;;;;;;9.68;4.78;;;5.80;99.90;;;;;;4963717;28;20031;-55
2022/04/04 09:35:46;;;;;;;8.82;4.50;;;5.90;99.90;;;;;;4963900;28;20055;-55
2022/04/04 09:38:14;;;;;;;11.88;4.90;;;5.80;99.90;;;;;;4962874;28;20930;-56
2022/04/04 09:40:40;;;;;;;10.88;5.13;;;6.00;99.90;;;;;;4964120;28;20043;-53
2022/04/04 09:43:06;;;;;;;11.55;4.60;;;5.90;99.90;;;;;;4962787;29;20138;-56
2022/04/04 09:45:32;;;;;;;10.02;4.18;;;6.10;99.90;;;;;;4963459;29;20055;-56
2022/04/04 09:48:04;;;;;;;10.55;4.32;;;6.20;99.90;;;;;;4963095;28;20063;-56
2022/04/04 09:50:30;;;;;;;;;;;6.20;99.90;;;;;;4963477;28;20530;-55
2022/04/04 09:52:57;;;;;;;11.27;3.83;;;6.10;99.90;;;;;;4963756;29;19922;-54
2022/04/04 09:55:37;;;;;;;8.75;4.25;;;6.20;99.90;;;;;;4962565;28;20078;-55
2022/04/04 09:58:05;;;;;;;9.40;4.35;;;6.30;99.90;;;;;;4963856;28;20066;-55
2022/04/04 10:00:34;;;;;;;11.32;4.20;;;6.10;99.90;;;;;;4962639;28;20066;-51
2022/04/04 10:03:01;;;;;;;11.10;4.38;;;6.20;99.90;;;;;;4963039;28;20103;-54
2022/04/04 10:05:28;;;;;;;8.82;4.68;;;6.20;99.90;;;;;;4945991;29;20055;-55
2022/04/04 10:07:56;;;;;;;12.13;4.40;;;6.30;99.90;;;;;;4962680;28;20079;-55
2022/04/04 10:10:25;;;;;;;10.77;4.60;;;6.20;99.90;;;;;;4963524;28;20039;-52
2022/04/04 10:12:52;;;;;;;10.80;4.72;;;6.20;99.90;;;;;;4962258;28;20067;-53
2022/04/04 10:15:18;;;;;;;9.32;4.53;;;6.40;99.90;;;;;;4963520;28;20039;-53
2022/04/04 10:17:45;;;;;;;10.88;4.35;;;6.40;99.90;;;;;;4962232;28;20047;-54
2022/04/04 10:20:11;;;;;;;10.82;4.35;;;6.30;99.90;;;;;;4963030;28;20046;-54
2022/04/04 10:22:38;;;;;;;9.73;4.05;;;6.30;99.90;;;;;;4962999;28;20098;-52
2022/04/04 10:25:07;;;;;;;9.05;3.83;;;6.30;99.90;;;;;;4960717;28;20059;-55
2022/04/04 10:27:35;;;;;;;9.93;4.38;;;6.40;99.90;;;;;;4963243;28;20039;-55
2022/04/04 10:30:06;;;;;;;8.32;4.05;;;6.50;99.90;;;;;;4961926;28;20047;-54
2022/04/04 10:32:33;;;;;;;8.68;3.63;;;6.30;99.90;;;;;;4963381;28;20122;-53
2022/04/04 10:35:09;;;;;;;9.43;3.72;;;6.50;99.90;;;;;;4961026;29;20043;-54
2022/04/04 10:37:45;;;;;;;9.38;3.17;;;6.40;99.90;;;;;;4962281;28;20054;-55
2022/04/04 10:40:25;;;;;;;7.43;3.10;;;6.50;99.90;;;;;;4962698;28;20055;-55
2022/04/04 10:43:11;;;;;;;10.85;3.53;;;6.40;99.90;;;;;;4961560;28;20082;-53
2022/04/04 10:45:55;;;;;;;8.40;3.30;;;6.40;99.90;;;;;;4961005;28;20093;-54
2022/04/04 10:48:31;;;;;;;9.32;3.20;;;6.50;99.90;;;;;;4961206;29;20083;-52
2022/04/04 10:51:11;;;;;;;7.15;2.65;;;6.50;99.90;;;;;;4961405;28;20047;-55
2022/04/04 10:53:40;;;;;;;10.13;3.20;;;6.50;99.90;;;;;;4963036;28;20089;-55
2022/04/04 10:56:10;;;;;;;6.57;2.65;;;6.50;99.90;;;;;;4960137;29;20152;-53
2022/04/04 10:58:35;;;;;;;6.35;2.30;;;6.50;99.90;;;;;;4962196;28;20098;-53
2022/04/04 11:01:09;;;;;;;7.15;2.42;;;6.60;99.90;;;;;;4962178;29;20102;-54
2022/04/04 11:03:36;;;;;;;7.10;2.22;;;6.50;99.90;;;;;;4961429;28;20039;-54
2022/04/04 11:09:16;;;;;;;7.50;2.45;;;6.60;99.90;;;;;;4961321;29;20078;-55
2022/04/04 11:11:43;;;;;;;7.55;2.55;;;6.70;99.90;;;;;;4961751;28;20039;-59
2022/04/04 11:14:09;;;;;;;7.55;2.28;;;6.70;99.90;;;;;;4962184;28;20601;-56
2022/04/04 11:17:07;;;;;;;8.15;2.10;;;6.80;99.90;;;;;;4960626;28;20047;-54
2022/04/04 11:20:00;;;;;;;6.93;2.28;;;6.90;99.90;;;;;;4929178;28;20071;-56
2022/04/04 11:22:29;;;;;;;5.75;2.10;;;6.80;99.90;;;;;;4961592;28;20130;-53
2022/04/04 11:25:05;;;;;;;4.75;1.67;;;7.00;99.90;;;;;;4959814;29;20055;-55
2022/04/04 11:27:33;;;;;;;6.15;1.80;;;6.80;99.90;;;;;;4962258;28;20157;-54
2022/04/04 11:30:04;;;;;;;4.25;1.90;;;6.90;99.90;;;;;;4960948;28;20103;-55
2022/04/04 11:32:33;;;;;;;7.95;3.17;;;7.00;99.90;;;;;;4962286;28;20868;-54
2022/04/04 11:35:10;;;;;;;4.40;1.70;;;6.90;99.90;;;;;;4959547;28;20091;-54
2022/04/04 11:37:51;;;;;;;5.85;1.88;;;7.00;99.90;;;;;;4961279;28;20047;-55
2022/04/04 11:40:23;;;;;;;5.55;1.73;;;6.90;99.90;;;;;;4961942;28;20047;-54
2022/04/04 11:42:51;;;;;;;3.67;1.48;;;6.90;99.90;;;;;;4960347;28;20051;-53
2022/04/04 11:45:25;;;;;;;4.40;1.63;;;6.90;99.90;;;;;;4961649;28;20051;-55
2022/04/04 11:47:57;;;;;;;5.28;2.00;;;7.10;99.90;;;;;;4960773;28;20075;-55
2022/04/04 11:50:26;;;;;;;4.93;2.08;;;7.10;99.90;;;;;;4961118;28;20187;-54
2022/04/04 11:53:02;;;;;;;4.35;1.73;;;7.10;99.90;;;;;;4961678;28;20058;-56
2022/04/04 11:55:32;;;;;;;5.30;2.05;;;7.20;99.90;;;;;;4960457;28;20051;-55
2022/04/04 11:58:00;;;;;;;5.10;2.13;;;7.10;99.90;;;;;;4961731;28;20043;-56
2022/04/04 12:00:30;;;;;;;6.32;1.77;;;7.10;99.90;;;;;;4960516;29;20051;-54
2022/04/04 12:03:01;;;;;;;5.18;2.00;;;7.10;99.90;;;;;;4959811;29;20131;-56
2022/04/04 12:05:27;;;;;;;4.40;1.48;;;7.10;99.90;;;;;;4959898;29;20091;-56
2022/04/04 12:07:53;;;;;;;7.00;2.17;;;7.30;99.90;;;;;;4960112;28;20508;-57
2022/04/04 12:10:31;;;;;;;4.85;1.80;;;7.30;99.90;;;;;;4961386;28;20058;-56
2022/04/04 12:13:18;;;;;;;4.32;1.55;;;7.20;99.90;;;;;;4960219;28;20050;-56
2022/04/04 12:15:44;;;;;;;5.25;2.10;;;7.40;99.90;;;;;;4960820;28;20055;-57
2022/04/04 12:18:17;;;;;;;5.53;2.40;;;7.30;99.90;;;;;;4960874;28;20081;-57
2022/04/04 12:20:45;;;;;;;5.50;2.30;;;7.40;99.90;;;;;;4958756;29;20051;-56
2022/04/04 12:26:01;;;;;;;6.20;2.58;;;7.40;99.90;;;;;;4960175;29;20058;-56
2022/04/04 12:28:33;;;;;;;7.40;3.15;;;7.60;99.90;;;;;;4960890;28;20039;-56
2022/04/04 12:31:19;;;;;;;8.07;3.08;;;7.50;99.90;;;;;;4960716;28;20103;-55
2022/04/04 12:33:53;;;;;;;7.10;2.85;;;7.70;99.90;;;;;;4959876;28;20043;-57
2022/04/04 12:36:29;;;;;;;7.53;3.50;;;7.80;99.90;;;;;;4961226;28;20039;-57
2022/04/04 12:38:58;;;;;;;7.35;3.50;;;7.70;99.90;;;;;;4959717;28;20082;-57
2022/04/04 12:41:24;;;;;;;6.10;3.33;;;7.80;99.90;;;;;;4960668;28;20043;-57
2022/04/04 12:44:04;;;;;;;8.45;3.92;;;7.80;99.90;;;;;;4960538;28;20046;-57
2022/04/04 12:46:32;;;;;;;9.10;3.83;;;7.80;99.90;;;;;;4959311;28;20078;-57
2022/04/04 12:49:09;;;;;;;8.43;3.70;;;7.80;99.90;;;;;;4960935;28;20043;-57
2022/04/04 12:51:34;;;;;;;8.32;3.60;;;7.80;99.90;;;;;;4959423;28;20044;-57
2022/04/04 12:54:00;;;;;;;8.38;4.07;;;7.80;99.90;;;;;;4960931;29;20051;-59
2022/04/04 12:56:28;;;;;;;8.80;4.22;;;7.80;99.90;;;;;;4960243;28;20172;-57
2022/04/04 12:59:10;;;;;;;8.90;4.55;;;8.10;99.90;;;;;;4960019;28;20047;-57
2022/04/04 13:01:36;;;;;;;10.20;4.97;;;8.00;99.90;;;;;;4959216;29;20043;-56